x

Edisto - 41 Nm Southeast Of Charleston, Sc (41004) Wave Buoy

12:50pm - Fri 12th Feb 2016 All times are EST. -5 hours from GMT.

  • Sig Wave height 4.6ft
  • Swell Direction
  • Peak Period 6s
  • Average Period 5s
  • Wind
    20mph, 25mph gusts
  • Sea Temp 68°f
  • Air Temp 59°f
  • Sea Pressure 1017.2mb
  • Edisto - 41 Nm Southeast Of Charleston, Sc
  • Edisto - 41 Nm Southeast Of Charleston, Sc

More Historic Weather Station data

Upgrade to MSW Pro to gain access to the past 30 days of data for over 8000 Wavebouys and Weather Stations around the globe.

Join Pro

Comparision Forecast

View Surf forecast
   
Fri 02/12 12:50pm 4.5ft 6s 5s 20 25 mph 1017.2mb 68f 59f
11:50am 4.5ft 7s 5s 20 25 mph 1018.2mb 68f 59f
10:50am 4ft 6s 4s 20 22 mph 1019.1mb 68f 59f
9:50am 4ft 6s 5s 16 20 mph 1019.7mb 69f 60f
8:50am 4ft 6s 4s 18 20 mph 1020.1mb 69f 59f
7:50am 3.5ft 6s 4s 20 22 mph 1020.3mb 69f 58f
6:50am 3.5ft 6s 4s 18 22 mph 1020.7mb 69f 59f
5:50am 2.5ft 6s 4s 18 20 mph 1020.6mb 69f 59f
4:50am 1.6ft 2s 3s 16 18 mph 1020.5mb 69f 60f
3:50am 1.3ft 4s 4s 9 18 mph 1021.1mb 69f 61f
2:50am 1.3ft 4s 4s 9 11 mph 1021.4mb 69f 60f
1:50am 1.3ft 4s 4s 9 11 mph 1022.2mb 69f 58f
12:50am 1.3ft 5s 4s 11 13 mph 1022.5mb 69f 56f
Thu 02/11 11:50pm 1.3ft 4s 4s 9 11 mph 1023.1mb 69f 56f
10:50pm 1.3ft 5s 4s 4 7 mph 1023.7mb 68f 55f
9:50pm 1.6ft 5s 4s 2 4 mph 1024.2mb 67f 54f
8:50pm 1.6ft 5s 5s 4 7 mph 1024.3mb 67f 53f
7:50pm 2.5ft 6s 5s 7 9 mph 1023.9mb 67f 53f
6:50pm 2.5ft 6s 5s 7 11 mph 1023.1mb 64f 51f
5:50pm 3ft 6s 5s 7 9 mph 1022.7mb 64f 50f
4:50pm 3.5ft 6s 5s 4 7 mph 1022.5mb 63f 49f
3:50pm 3.5ft 6s 5s 4 9 mph 1022.3mb 62f 47f
2:50pm 3.5ft 6s 5s 7 9 mph 1022.3mb 62f 46f
1:50pm 4ft 6s 5s 9
mph
1022.8mb 62f 45f
12:50pm 4.5ft 7s 5s 11 16 mph 1023.7mb 62f 44f
11:50am 5ft 6s 5s 16 20 mph 1024.5mb 63f 43f
10:50am 5ft 6s 5s 16 22 mph 1024.9mb 63f 42f
9:50am 5.5ft 6s 5s 18 22 mph 1024.9mb 64f 42f
8:50am 6.5ft 6s 5s 20 27 mph 1024.7mb 64f 42f
7:50am 6ft 7s 5s 22 27 mph 1024.1mb 64f 43f
6:50am 7.5ft 6s 6s 25 29 mph 1023mb 64f 43f
5:50am 7.5ft 7s 5s 27 34 mph 1022.1mb 63f 44f
4:50am 7.5ft 7s 5s 29 36 mph 1021.1mb 63f 45f
3:50am 7.5ft 7s 5s 34 40 mph 1020mb 63f 44f
2:50am 8ft 7s 6s 31 40 mph 1020.6mb 63f 45f
1:50am 8ft 7s 6s 29 36 mph 1020.3mb 63f 46f
12:50am 8ft 7s 5s 29 40 mph 1020mb 63f 46f
Wed 02/10 11:50pm 9ft 8s 6s 31 38 mph 1019.8mb 63f 46f
10:50pm 8ft 8s 5s 34 40 mph 1019.4mb 63f 45f
9:50pm 8ft 7s 5s 34 38 mph 1019.2mb 64f 45f
8:50pm 7.5ft 7s 5s 31 40 mph 1019mb 64f 45f
7:50pm 7.5ft 7s 5s 29 36 mph 1018.6mb 64f 44f
6:50pm 7ft 7s 5s 29 38 mph 1017.3mb 63f 45f
5:50pm 7.5ft 7s 5s 29 38 mph 1016.6mb 63f 45f
4:50pm 7ft 7s 5s 29 40 mph 1015.6mb 63f 44f
3:50pm 6.5ft 7s 5s 29 36 mph 1015.1mb 63f 43f
2:50pm 7ft 7s 5s 29 34 mph 1014.8mb 63f 41f
1:50pm 6.5ft 7s 5s 27 34 mph 1014.9mb 63f 40f
12:50pm 7ft 7s 5s 25 31 mph 1015.4mb 62f 39f
11:50am 7ft 7s 5s 25 29 mph 1016.1mb 63f 38f
10:50am 7ft 7s 5s 25 31 mph 1016.7mb 63f 38f
9:50am 7.5ft 7s 5s 27 36 mph 1016.6mb 63f 38f
8:50am 7.5ft 7s 5s 29 45 mph 1016.4mb 64f 39f
7:50am 8ft 7s 6s 29 36 mph 1015.9mb 64f 39f
6:50am 8ft 7s 6s 31 38 mph 1015mb 64f 40f
5:50am 8ft 7s 5s 31 38 mph 1014.6mb 64f 41f
4:50am 9ft 7s 6s 31 40 mph 1013.9mb 64f 42f
3:50am 9ft 7s 6s 31 38 mph 1013.7mb 64f 42f
2:50am 8ft 6s 5s 34 40 mph 1013.6mb 64f 42f
1:50am 8ft 7s 5s 34 45 mph 1013.6mb 64f 43f
12:50am 8ft 5s 5s 34 40 mph 1013.2mb 64f 44f
Tue 02/09 11:50pm 8ft 8s 5s 31 38 mph 1013.4mb 64f 45f
10:50pm 7.5ft 8s 5s 29 36 mph 1013mb 64f 45f
9:50pm 8ft 7s 6s 29 36 mph 1012.5mb 64f 46f
8:50pm 9ft 8s 6s 29 34 mph 1012mb 65f 47f
7:50pm 9ft 8s 6s 31 38 mph 1011.3mb 65f 47f
6:50pm 9ft 8s 6s 29 36 mph 1010.5mb 65f 48f
5:50pm 9ft 8s 6s 34 43 mph 1009.7mb 65f 47f
4:50pm 9ft 7s 6s 29 38 mph 1008.7mb 65f 48f
3:50pm 8.5ft 7s 6s 27 34 mph 1007.6mb 65f 48f
2:50pm 8.5ft 7s 6s 27 38 mph 1007.3mb 65f 48f
1:50pm 7.5ft 7s 5s 29 38 mph 1007.5mb 65f 47f
12:50pm 8ft 7s 5s 29 34 mph 1008.1mb 65f 47f
11:50am 9ft 7s 6s 29 38 mph 1008.5mb 65f 47f
10:50am 8.5ft 7s 5s 29 36 mph 1009.3mb 65f 47f
9:50am 8ft 7s 5s 29 38 mph 1010.2mb 65f 47f
8:50am 8ft 7s 5s 29 36 mph 1010mb 65f 46f
7:50am 8ft 7s 5s 34 38 mph 1008.4mb 65f 46f
6:50am 8ft 6s 6s 29 36 mph 1007.9mb 65f 48f
5:50am 9ft 6s 6s 31 38 mph 1007.1mb 65f 49f
4:50am 8.5ft 6s 6s 29 36 mph 1006.8mb 65f 50f
3:50am 8ft 6s 6s 31 36 mph 1006mb 65f 50f
2:50am 7.5ft 8s 6s 31 38 mph 1005.5mb 65f 52f
1:50am 7ft 8s 6s 31 36 mph 1005.3mb 65f 53f
12:50am 6ft 8s 6s 25 31 mph 1005.4mb 65f 53f
Mon 02/08 11:50pm 7ft 7s 6s 16 20 mph 1006mb 65f 52f
10:50pm 7ft 8s 5s 16 20 mph 1006.4mb 65f 50f
9:50pm 8ft 7s 6s 29 36 mph 1005.8mb 65f 53f
8:50pm 8.5ft 7s 6s 29 36 mph 1005.8mb 65f 52f
7:50pm 9ft 7s 6s 29 36 mph 1005.3mb 66f 61f
6:50pm 9.5ft 6s 6s 34 40 mph 1005.3mb 65f 60f